Terminal Aerodrome Forecast
Issued by NWS

Home | Current Version | Previous Version | Text Only | Print | Product List | Glossary On
Versions: 1 2 3 4 5 6 7 8 9 10 11 12 13 14 15
000
FTUS44 KHGX 251727
TAFLBX
TAF
KLBX 251727Z 2518/2618 VRB04KT P6SM SKC
     FM260600 00000KT 5SM BR SKC
      TEMPO 2609/2613 1 1/2SM BR
     FM261500 17003KT P6SM SKC=

USA.gov is the U.S. government's official web portal to all federal, state and local government web resources and services.